Time;durP1;ratioP1;P1;durP2;ratioP2;P2;SDS_P1;SDS_P2;PMS_P1;PMS_P2;Temp;Humidity;BMP_temperature;BMP_pressure;BME280_temperature;BME280_humidity;BME280_pressure;Samples;Min_cycle;Max_cycle;Signal;HPM_P1;HPM_P2
2023/08/29 00:01:47;;;;;;;4.97;3.20;;;15.10;98.00;;;;;;5011770;28;20462;-67
2023/08/29 00:04:15;;;;;;;4.93;3.40;;;15.20;98.00;;;;;;5011632;28;20538;-66
2023/08/29 00:06:42;;;;;;;8.97;4.07;;;15.20;98.00;;;;;;5011652;28;20463;-67
2023/08/29 00:09:09;;;;;;;5.20;3.30;;;15.20;98.00;;;;;;5011619;28;20490;-67
2023/08/29 00:11:36;;;;;;;5.30;3.43;;;15.10;98.00;;;;;;5010393;28;20558;-67
2023/08/29 00:14:04;;;;;;;7.07;3.60;;;15.10;98.00;;;;;;5011732;28;20485;-67
2023/08/29 00:16:32;;;;;;;5.33;3.40;;;15.10;98.00;;;;;;5010327;28;20442;-67
2023/08/29 00:18:59;;;;;;;4.27;3.20;;;15.20;98.00;;;;;;5011720;28;20967;-67
2023/08/29 00:21:26;;;;;;;5.60;3.40;;;15.20;98.00;;;;;;5011822;28;20989;-66
2023/08/29 00:23:53;;;;;;;4.83;3.10;;;15.20;98.00;;;;;;5011868;28;20463;-67
2023/08/29 00:26:20;;;;;;;5.07;3.17;;;15.20;98.00;;;;;;5011611;28;21068;-67
2023/08/29 00:28:54;;;;;;;4.67;2.90;;;15.20;98.00;;;;;;5011909;28;20985;-67
2023/08/29 00:31:21;;;;;;;5.17;3.30;;;15.20;98.00;;;;;;5010425;28;20463;-67
2023/08/29 00:33:49;;;;;;;5.53;3.30;;;15.20;98.00;;;;;;5010818;28;21031;-67
2023/08/29 00:36:16;;;;;;;6.13;3.60;;;15.10;98.00;;;;;;5011997;28;20483;-67
2023/08/29 00:38:44;;;;;;;5.03;3.67;;;15.00;98.00;;;;;;5010334;28;20463;-67
2023/08/29 00:41:11;;;;;;;5.67;3.37;;;14.90;98.00;;;;;;5011655;28;20459;-67
2023/08/29 00:43:38;;;;;;;5.50;3.37;;;14.80;98.00;;;;;;5011751;28;20539;-67
2023/08/29 00:46:06;;;;;;;5.97;3.53;;;14.90;98.00;;;;;;5011756;28;20949;-67
2023/08/29 00:48:33;;;;;;;7.60;3.20;;;14.90;98.00;;;;;;5011533;28;20494;-66
2023/08/29 00:51:02;;;;;;;5.93;3.13;;;15.00;98.00;;;;;;5011564;28;20478;-67
2023/08/29 00:53:30;;;;;;;7.50;3.50;;;15.00;98.00;;;;;;5011467;28;20451;-67
2023/08/29 00:55:58;;;;;;;5.27;3.40;;;14.90;98.00;;;;;;5011456;28;20463;-67
2023/08/29 00:58:25;;;;;;;6.23;3.40;;;14.90;98.00;;;;;;5011178;28;20509;-67
2023/08/29 01:00:53;;;;;;;4.30;3.30;;;14.90;98.00;;;;;;5011168;28;20843;-67
2023/08/29 01:03:21;;;;;;;4.93;3.10;;;15.00;98.00;;;;;;5011383;28;20452;-67
2023/08/29 01:05:48;;;;;;;4.60;3.17;;;15.00;98.00;;;;;;5009978;28;20499;-67
2023/08/29 01:08:17;;;;;;;5.23;3.23;;;15.00;98.00;;;;;;5011193;28;20489;-67
2023/08/29 01:10:56;;;;;;;8.13;3.30;;;15.00;98.00;;;;;;4996994;28;20521;-67
2023/08/29 01:13:27;;;;;;;5.80;3.67;;;14.90;98.00;;;;;;5014791;28;20462;-67
2023/08/29 01:15:59;;;;;;;7.50;3.87;;;15.00;98.00;;;;;;5014797;28;20509;-67
2023/08/29 01:18:28;;;;;;;6.07;3.50;;;15.00;98.00;;;;;;5014935;28;20477;-67
2023/08/29 01:21:01;;;;;;;6.10;3.40;;;14.90;98.00;;;;;;5014817;28;20455;-67
2023/08/29 01:23:36;;;;;;;4.63;3.13;;;14.90;98.00;;;;;;5014742;28;20481;-67
2023/08/29 01:26:12;;;;;;;6.80;3.20;;;15.00;98.00;;;;;;5014946;28;20545;-67
2023/08/29 01:28:40;;;;;;;4.63;3.10;;;15.10;98.00;;;;;;5014646;28;20529;-66
2023/08/29 01:31:08;;;;;;;4.40;3.10;;;15.20;98.00;;;;;;5014781;28;20462;-67
2023/08/29 01:33:38;;;;;;;5.13;3.13;;;15.10;98.00;;;;;;5014636;28;20980;-67
2023/08/29 01:36:05;;;;;;;5.60;3.77;;;15.10;98.00;;;;;;5014401;28;20491;-67
2023/08/29 01:38:34;;;;;;;6.13;3.30;;;15.10;98.00;;;;;;5013413;28;20481;-67
2023/08/29 01:41:02;;;;;;;5.30;3.47;;;15.10;98.00;;;;;;5014594;28;20452;-67
2023/08/29 01:43:30;;;;;;;6.90;3.30;;;15.20;98.00;;;;;;5014207;28;20455;-67
2023/08/29 01:45:58;;;;;;;4.00;3.20;;;15.10;98.00;;;;;;5014117;28;20769;-66
2023/08/29 01:48:25;;;;;;;5.73;3.00;;;15.00;98.00;;;;;;5014100;28;20993;-67
2023/08/29 01:50:53;;;;;;;4.83;3.10;;;15.00;98.00;;;;;;5012895;28;20462;-67
2023/08/29 01:53:20;;;;;;;4.33;3.00;;;14.90;98.00;;;;;;5014166;28;20455;-67
2023/08/29 01:55:49;;;;;;;3.90;2.90;;;14.90;98.00;;;;;;5014039;28;20925;-67
2023/08/29 01:58:17;;;;;;;5.40;3.20;;;15.00;98.00;;;;;;5013867;28;20467;-67
2023/08/29 02:00:47;;;;;;;6.40;3.77;;;15.00;98.00;;;;;;5013768;28;20460;-67
2023/08/29 02:03:14;;;;;;;4.27;3.20;;;14.90;98.00;;;;;;5013780;28;20860;-67
2023/08/29 02:05:41;;;;;;;4.33;3.00;;;14.80;98.00;;;;;;5013646;28;20470;-67
2023/08/29 02:08:09;;;;;;;4.67;3.00;;;14.80;98.00;;;;;;5013611;28;20482;-67
2023/08/29 02:10:38;;;;;;;6.53;3.50;;;14.90;98.00;;;;;;5013549;28;21035;-67
2023/08/29 02:13:05;;;;;;;6.20;3.40;;;14.80;98.00;;;;;;5013674;28;20459;-66
2023/08/29 02:15:32;;;;;;;4.43;3.27;;;14.80;98.00;;;;;;5012292;28;20466;-67
2023/08/29 02:18:01;;;;;;;4.43;3.10;;;14.80;98.00;;;;;;5013915;28;20455;-67
2023/08/29 02:20:28;;;;;;;6.60;3.30;;;14.80;98.00;;;;;;5011159;28;20953;-67
2023/08/29 02:22:55;;;;;;;4.63;3.40;;;14.90;98.00;;;;;;5013710;28;20463;-67
2023/08/29 02:25:22;;;;;;;3.80;3.03;;;14.90;98.00;;;;;;5013746;28;20462;-67
2023/08/29 02:27:49;;;;;;;6.83;3.70;;;14.90;98.00;;;;;;5013754;28;20462;-66
2023/08/29 02:30:16;;;;;;;4.47;3.27;;;14.80;98.00;;;;;;5013527;28;20485;-67
2023/08/29 02:32:45;;;;;;;3.83;2.93;;;15.00;98.00;;;;;;5014089;28;20506;-67
2023/08/29 02:35:14;;;;;;;6.40;3.90;;;14.90;98.00;;;;;;5013440;28;20459;-67
2023/08/29 02:37:43;;;;;;;4.00;3.20;;;14.90;98.00;;;;;;5013376;28;20458;-66
2023/08/29 02:40:11;;;;;;;4.80;3.17;;;14.90;98.00;;;;;;5012548;28;20463;-67
2023/08/29 02:42:39;;;;;;;5.37;3.20;;;14.90;98.00;;;;;;5013074;28;20452;-67
2023/08/29 02:45:07;;;;;;;4.93;3.27;;;14.80;98.00;;;;;;5012972;28;20486;-67
2023/08/29 02:47:34;;;;;;;6.57;3.30;;;14.80;98.00;;;;;;5013036;28;20459;-66
2023/08/29 02:50:03;;;;;;;6.47;3.47;;;15.00;98.00;;;;;;5013243;28;20530;-67
2023/08/29 02:52:32;;;;;;;7.00;3.60;;;15.00;98.00;;;;;;5011674;28;20458;-67
2023/08/29 02:54:59;;;;;;;5.37;3.30;;;14.90;98.00;;;;;;5012956;28;20454;-66
2023/08/29 02:57:27;;;;;;;4.63;3.17;;;15.00;98.00;;;;;;5012614;28;20850;-67
2023/08/29 02:59:54;;;;;;;5.30;3.07;;;15.00;98.00;;;;;;5013157;28;20452;-67
2023/08/29 03:02:21;;;;;;;5.40;3.60;;;15.00;98.00;;;;;;5012973;28;20451;-66
2023/08/29 03:04:48;;;;;;;4.43;2.90;;;15.00;98.00;;;;;;5012694;28;20471;-67
2023/08/29 03:07:15;;;;;;;5.20;3.30;;;15.00;98.00;;;;;;5012291;28;20499;-67
2023/08/29 03:09:44;;;;;;;5.13;3.30;;;15.00;98.00;;;;;;5012565;28;20520;-66
2023/08/29 03:12:11;;;;;;;6.37;3.70;;;15.10;98.00;;;;;;5011434;28;20459;-66
2023/08/29 03:14:38;;;;;;;7.63;3.70;;;15.00;98.00;;;;;;5011408;28;20980;-67
2023/08/29 03:17:05;;;;;;;7.90;3.90;;;15.10;98.00;;;;;;5012686;28;20484;-66
2023/08/29 03:19:32;;;;;;;6.03;3.30;;;15.10;98.00;;;;;;5012644;28;20526;-67
2023/08/29 03:21:59;;;;;;;5.50;3.73;;;15.20;98.00;;;;;;5012649;28;20472;-66
2023/08/29 03:24:26;;;;;;;4.70;3.33;;;15.10;98.00;;;;;;5012216;28;20466;-67
2023/08/29 03:26:55;;;;;;;4.77;3.10;;;15.00;98.00;;;;;;5012606;28;20535;-67
2023/08/29 03:29:22;;;;;;;4.97;3.20;;;15.00;98.00;;;;;;5011689;28;20487;-67
2023/08/29 03:31:56;;;;;;;5.70;3.80;;;15.00;98.00;;;;;;5011075;28;20485;-67
2023/08/29 03:34:24;;;;;;;4.40;3.33;;;14.90;98.00;;;;;;5011123;28;20458;-67
2023/08/29 03:36:51;;;;;;;5.73;3.70;;;14.80;98.00;;;;;;5012441;28;20463;-67
2023/08/29 03:39:18;;;;;;;4.83;3.50;;;14.80;98.00;;;;;;5010932;28;20458;-67
2023/08/29 03:41:46;;;;;;;5.07;3.70;;;14.80;98.00;;;;;;5012023;28;20447;-67
2023/08/29 03:44:14;;;;;;;5.27;3.57;;;14.80;98.00;;;;;;4994729;28;20455;-67
2023/08/29 03:46:41;;;;;;;5.13;3.30;;;14.80;98.00;;;;;;5012029;28;20461;-66
2023/08/29 03:49:08;;;;;;;6.67;3.70;;;14.80;98.00;;;;;;5012281;28;20847;-66
2023/08/29 03:51:36;;;;;;;6.20;3.63;;;14.80;98.00;;;;;;5011936;28;20459;-67
2023/08/29 03:54:03;;;;;;;5.90;3.70;;;14.80;98.00;;;;;;5011022;28;20518;-67
2023/08/29 03:56:31;;;;;;;5.30;3.67;;;14.70;98.00;;;;;;5010706;28;20487;-67
2023/08/29 03:59:00;;;;;;;7.27;3.30;;;14.70;98.00;;;;;;5011912;28;20482;-66
2023/08/29 04:01:29;;;;;;;7.60;3.97;;;14.80;98.00;;;;;;5011868;28;20459;-67
2023/08/29 04:03:57;;;;;;;8.97;4.10;;;14.80;98.00;;;;;;5012146;28;21027;-67
2023/08/29 04:06:25;;;;;;;4.53;3.03;;;14.70;98.00;;;;;;5011732;28;20531;-67
2023/08/29 04:08:54;;;;;;;7.50;3.57;;;14.80;98.00;;;;;;5011967;28;20487;-66
2023/08/29 04:11:21;;;;;;;6.10;3.90;;;14.80;98.00;;;;;;5011978;28;20458;-67
2023/08/29 04:13:48;;;;;;;6.70;3.90;;;14.80;98.00;;;;;;5010957;28;20797;-67
2023/08/29 04:16:16;;;;;;;5.80;3.70;;;14.90;98.00;;;;;;5012031;28;20450;-66
2023/08/29 04:18:44;;;;;;;6.07;3.50;;;15.00;98.00;;;;;;5010758;28;20880;-67
2023/08/29 04:21:11;;;;;;;5.73;3.80;;;14.90;98.00;;;;;;5012245;28;20455;-67
2023/08/29 04:23:38;;;;;;;7.03;3.83;;;14.90;98.00;;;;;;5012205;28;20950;-66
2023/08/29 04:26:06;;;;;;;5.50;3.80;;;14.90;98.00;;;;;;5011923;28;20466;-66
2023/08/29 04:28:33;;;;;;;6.63;3.77;;;15.00;98.00;;;;;;5011712;28;20534;-67
2023/08/29 04:31:08;;;;;;;7.23;4.17;;;14.90;98.00;;;;;;5010620;28;20450;-66
2023/08/29 04:33:35;;;;;;;7.10;3.77;;;14.90;98.00;;;;;;5010330;28;20511;-66
2023/08/29 04:36:04;;;;;;;6.10;4.00;;;14.90;98.00;;;;;;5011608;28;20947;-67
2023/08/29 04:38:32;;;;;;;5.77;3.80;;;14.80;98.00;;;;;;5011621;28;20483;-66
2023/08/29 04:40:59;;;;;;;6.50;3.93;;;14.70;98.00;;;;;;5011608;28;20498;-67
2023/08/29 04:43:27;;;;;;;8.23;3.83;;;14.80;98.00;;;;;;5011682;28;20459;-67
2023/08/29 04:45:55;;;;;;;7.33;3.80;;;14.70;98.00;;;;;;5015397;28;20539;-67
2023/08/29 04:48:22;;;;;;;5.47;3.53;;;14.70;98.00;;;;;;5014085;28;20516;-67
2023/08/29 04:50:49;;;;;;;9.07;4.43;;;14.80;98.00;;;;;;5015190;28;20485;-67
2023/08/29 04:53:18;;;;;;;6.23;4.13;;;14.80;98.00;;;;;;5014170;28;20517;-67
2023/08/29 04:55:45;;;;;;;7.13;3.47;;;14.90;98.00;;;;;;5015211;28;20521;-67
2023/08/29 04:58:12;;;;;;;6.53;4.20;;;14.90;98.00;;;;;;5015283;28;20457;-67
2023/08/29 05:00:39;;;;;;;6.83;4.33;;;14.90;98.00;;;;;;5015075;28;20461;-66
2023/08/29 05:03:06;;;;;;;7.77;4.23;;;14.80;98.00;;;;;;5015126;28;20589;-67
2023/08/29 05:05:33;;;;;;;6.60;4.20;;;14.90;98.00;;;;;;5014959;28;20462;-67
2023/08/29 05:08:00;;;;;;;7.07;4.33;;;14.90;98.00;;;;;;5015181;28;20451;-67
2023/08/29 05:10:30;;;;;;;6.10;3.80;;;14.90;98.00;;;;;;5015043;28;20574;-67
2023/08/29 05:12:57;;;;;;;6.00;3.83;;;14.90;98.00;;;;;;5015245;28;20458;-67
2023/08/29 05:15:24;;;;;;;12.53;4.43;;;15.00;98.00;;;;;;5014974;28;20466;-66
2023/08/29 05:17:51;;;;;;;7.30;4.57;;;15.00;98.00;;;;;;5015054;28;20462;-66
2023/08/29 05:20:18;;;;;;;6.27;3.73;;;15.10;98.00;;;;;;5013678;28;20459;-67
2023/08/29 05:22:45;;;;;;;6.57;3.93;;;15.30;98.00;;;;;;5013613;28;20451;-67
2023/08/29 05:25:13;;;;;;;7.10;4.30;;;15.30;98.00;;;;;;5014633;28;20819;-67
2023/08/29 05:27:43;;;;;;;6.30;4.03;;;15.20;98.00;;;;;;4997311;28;20520;-66
2023/08/29 05:30:10;;;;;;;6.10;4.10;;;15.10;98.00;;;;;;5014494;28;20544;-67
2023/08/29 05:32:39;;;;;;;5.90;4.00;;;15.20;98.00;;;;;;5014424;28;20968;-67
2023/08/29 05:35:07;;;;;;;8.50;4.50;;;15.10;98.00;;;;;;5014406;28;20499;-67
2023/08/29 05:37:34;;;;;;;8.03;4.40;;;15.10;98.00;;;;;;5013105;28;20490;-66
2023/08/29 05:40:01;;;;;;;6.70;4.00;;;15.10;98.00;;;;;;5014263;28;20454;-66
2023/08/29 05:42:28;;;;;;;10.70;4.60;;;15.10;98.00;;;;;;5014141;28;20450;-67
2023/08/29 05:44:57;;;;;;;5.30;3.70;;;15.10;98.00;;;;;;5014231;28;20463;-67
2023/08/29 05:47:24;;;;;;;6.23;3.90;;;15.00;98.00;;;;;;5014250;28;21149;-67
2023/08/29 05:49:52;;;;;;;6.30;3.97;;;15.10;98.00;;;;;;5014134;28;20543;-67
2023/08/29 05:52:19;;;;;;;6.33;4.30;;;15.10;98.00;;;;;;5014207;28;20491;-67
2023/08/29 05:54:46;;;;;;;9.40;4.30;;;15.20;98.00;;;;;;5014054;28;20760;-67
2023/08/29 05:57:16;;;;;;;8.27;4.20;;;15.30;98.00;;;;;;5014118;28;20480;-67
2023/08/29 05:59:43;;;;;;;9.70;4.70;;;15.30;98.00;;;;;;5014004;28;20505;-67
2023/08/29 06:02:12;;;;;;;7.40;4.30;;;15.30;98.00;;;;;;5014113;28;20466;-67
2023/08/29 06:04:39;;;;;;;6.30;4.27;;;15.20;98.00;;;;;;5013815;28;20458;-67
2023/08/29 06:07:07;;;;;;;6.43;4.20;;;15.20;98.00;;;;;;5012823;28;20807;-67
2023/08/29 06:09:34;;;;;;;7.07;4.47;;;15.10;98.00;;;;;;5013855;28;20514;-67
2023/08/29 06:12:01;;;;;;;7.00;4.13;;;15.00;98.00;;;;;;5013820;28;20450;-67
2023/08/29 06:14:30;;;;;;;8.77;4.80;;;15.10;98.00;;;;;;5013842;28;20455;-66
2023/08/29 06:16:58;;;;;;;8.30;4.17;;;15.10;98.00;;;;;;5012460;28;20563;-66
2023/08/29 06:19:28;;;;;;;8.13;4.00;;;15.10;98.00;;;;;;5013591;28;20847;-67
2023/08/29 06:21:55;;;;;;;8.03;4.90;;;15.10;98.00;;;;;;5013518;28;20459;-67
2023/08/29 06:24:22;;;;;;;8.90;4.60;;;15.30;98.00;;;;;;5013339;28;20455;-67
2023/08/29 06:26:50;;;;;;;11.17;4.70;;;15.10;98.00;;;;;;5013390;28;20467;-67
2023/08/29 06:29:17;;;;;;;8.50;5.00;;;15.10;98.00;;;;;;5013091;28;20478;-67
2023/08/29 06:31:44;;;;;;;10.37;4.87;;;15.00;98.00;;;;;;5013207;28;20456;-67
2023/08/29 06:34:11;;;;;;;9.47;4.90;;;15.10;98.00;;;;;;5011820;28;20848;-64
2023/08/29 06:36:41;;;;;;;6.63;3.93;;;15.20;98.00;;;;;;5012973;28;20470;-64
2023/08/29 06:39:09;;;;;;;7.43;4.20;;;15.20;98.00;;;;;;5011811;28;20459;-64
2023/08/29 06:41:36;;;;;;;7.30;4.80;;;15.30;98.00;;;;;;5011909;28;20455;-64
2023/08/29 06:44:03;;;;;;;8.40;4.13;;;15.40;98.00;;;;;;5013241;28;20481;-63
2023/08/29 06:46:30;;;;;;;9.63;4.97;;;15.40;98.00;;;;;;5012880;28;20475;-64
2023/08/29 06:48:57;;;;;;;8.87;4.87;;;15.40;98.00;;;;;;5012943;28;20451;-63
2023/08/29 06:51:25;;;;;;;8.50;4.90;;;15.40;98.00;;;;;;5012784;28;20993;-64
2023/08/29 06:53:54;;;;;;;9.33;5.00;;;15.30;98.00;;;;;;5012865;28;20550;-64
2023/08/29 06:56:22;;;;;;;7.17;4.60;;;15.30;98.00;;;;;;5012815;28;20960;-64
2023/08/29 06:58:49;;;;;;;8.53;4.37;;;15.40;98.00;;;;;;5013030;28;20466;-64
2023/08/29 07:01:16;;;;;;;7.30;4.23;;;15.30;98.00;;;;;;5013009;28;20447;-64
2023/08/29 07:03:43;;;;;;;8.50;4.93;;;15.50;98.00;;;;;;5013055;28;20455;-64
2023/08/29 07:06:10;;;;;;;8.83;5.47;;;15.60;98.00;;;;;;5011577;28;20941;-64
2023/08/29 07:08:37;;;;;;;7.83;4.90;;;15.70;98.00;;;;;;5012923;28;20481;-63
2023/08/29 07:11:06;;;;;;;8.53;4.70;;;15.80;98.00;;;;;;5012997;28;20490;-64
2023/08/29 07:13:33;;;;;;;10.00;5.57;;;15.70;98.00;;;;;;5012721;28;20473;-64
2023/08/29 07:16:01;;;;;;;8.80;5.00;;;15.60;98.00;;;;;;5012843;28;20461;-64
2023/08/29 07:18:29;;;;;;;10.80;5.77;;;15.60;98.00;;;;;;5009764;28;20843;-63
2023/08/29 07:20:59;;;;;;;13.00;5.83;;;15.40;98.00;;;;;;5012453;28;20482;-64
2023/08/29 07:23:26;;;;;;;9.80;5.83;;;15.50;98.00;;;;;;5011351;28;20488;-64
2023/08/29 07:25:53;;;;;;;9.60;5.83;;;15.50;98.00;;;;;;5012443;28;20463;-64
2023/08/29 07:28:21;;;;;;;12.07;5.93;;;15.50;98.00;;;;;;5012109;28;20461;-64
2023/08/29 07:30:51;;;;;;;12.67;6.10;;;15.70;98.00;;;;;;5012161;28;20487;-64
2023/08/29 07:33:18;;;;;;;9.03;5.43;;;15.70;98.00;;;;;;5012333;28;20455;-64
2023/08/29 07:35:47;;;;;;;10.20;5.33;;;15.60;98.00;;;;;;5012214;28;20451;-64
2023/08/29 07:38:14;;;;;;;10.90;5.80;;;15.60;98.00;;;;;;5012453;28;20443;-64
2023/08/29 07:40:41;;;;;;;9.07;5.80;;;15.60;98.00;;;;;;5012254;28;20852;-64
2023/08/29 07:43:10;;;;;;;11.70;6.00;;;15.60;98.00;;;;;;5012183;28;20505;-64
2023/08/29 07:45:39;;;;;;;9.03;5.53;;;15.60;98.00;;;;;;5012034;28;20453;-64
2023/08/29 07:48:07;;;;;;;10.63;5.83;;;15.80;98.00;;;;;;5012049;28;20514;-64
2023/08/29 07:50:35;;;;;;;9.90;6.00;;;15.90;98.00;;;;;;5011599;28;20493;-64
2023/08/29 07:53:02;;;;;;;10.37;6.23;;;16.00;98.00;;;;;;5012037;28;20462;-64
2023/08/29 07:55:29;;;;;;;10.07;5.70;;;16.10;98.00;;;;;;5012256;28;20477;-64
2023/08/29 07:57:57;;;;;;;10.60;5.83;;;16.00;98.00;;;;;;5012174;28;20918;-64
2023/08/29 08:00:25;;;;;;;13.53;7.20;;;15.90;98.00;;;;;;5010782;28;20498;-64
2023/08/29 08:02:54;;;;;;;13.07;6.30;;;15.90;98.00;;;;;;5011484;28;20537;-64
2023/08/29 08:05:21;;;;;;;15.30;6.87;;;15.90;98.00;;;;;;5011227;28;20459;-64
2023/08/29 08:07:48;;;;;;;13.77;6.93;;;15.70;98.00;;;;;;5011127;28;20462;-64
2023/08/29 08:10:17;;;;;;;13.07;6.83;;;15.70;98.00;;;;;;5011197;28;20867;-64
2023/08/29 08:12:46;;;;;;;10.37;6.27;;;15.80;98.00;;;;;;5011136;28;20465;-64
2023/08/29 08:15:13;;;;;;;14.57;6.70;;;16.00;98.00;;;;;;5011193;28;20466;-64
2023/08/29 08:17:41;;;;;;;12.03;6.60;;;16.00;98.00;;;;;;5011523;28;20448;-64
2023/08/29 08:20:12;;;;;;;10.20;5.97;;;16.10;98.00;;;;;;5015479;28;20537;-66
2023/08/29 08:22:39;;;;;;;13.17;6.60;;;16.20;98.00;;;;;;5015819;28;20460;-63
2023/08/29 08:25:07;;;;;;;12.63;7.00;;;16.20;98.00;;;;;;5015676;28;20455;-63
2023/08/29 08:27:35;;;;;;;14.33;7.03;;;16.00;98.00;;;;;;5015578;28;20455;-64
2023/08/29 08:30:03;;;;;;;12.83;7.23;;;16.10;98.00;;;;;;5015228;28;20517;-63
2023/08/29 08:32:30;;;;;;;13.60;7.17;;;16.10;98.00;;;;;;5014970;28;20461;-64
2023/08/29 08:34:57;;;;;;;19.43;7.60;;;16.20;98.00;;;;;;5013907;28;20462;-63
2023/08/29 08:37:25;;;;;;;14.57;7.10;;;16.30;98.00;;;;;;5014924;28;20463;-63
2023/08/29 08:39:52;;;;;;;12.80;7.20;;;16.50;98.00;;;;;;5014906;28;20458;-64
2023/08/29 08:42:20;;;;;;;13.27;6.93;;;16.60;98.00;;;;;;5015217;28;20458;-63
2023/08/29 08:44:48;;;;;;;16.10;7.70;;;16.50;98.00;;;;;;5014455;28;20901;-64
2023/08/29 08:47:15;;;;;;;19.30;8.17;;;16.40;98.00;;;;;;5015653;28;20842;-63
2023/08/29 08:49:43;;;;;;;13.83;6.93;;;16.20;98.00;;;;;;5015687;28;20461;-63
2023/08/29 08:52:12;;;;;;;13.83;7.60;;;16.00;98.00;;;;;;5015262;28;20457;-63
2023/08/29 08:54:41;;;;;;;13.97;7.50;;;16.20;98.00;;;;;;5015183;28;20448;-63
2023/08/29 08:57:11;;;;;;;13.90;7.50;;;16.20;98.00;;;;;;5015484;28;20951;-63
2023/08/29 08:59:39;;;;;;;12.20;6.70;;;16.10;98.00;;;;;;5015307;28;20459;-64
2023/08/29 09:02:14;;;;;;;12.43;6.27;;;16.20;98.00;;;;;;5013664;28;20863;-64
2023/08/29 09:04:41;;;;;;;14.07;7.53;;;16.20;98.00;;;;;;5018541;28;20559;-64
2023/08/29 09:07:08;;;;;;;12.10;7.17;;;16.20;98.00;;;;;;5023517;28;20953;-64
2023/08/29 09:09:35;;;;;;;15.43;7.00;;;16.20;98.00;;;;;;5014795;28;20469;-63
2023/08/29 09:12:04;;;;;;;12.67;6.97;;;16.30;98.00;;;;;;5014892;28;20494;-64
2023/08/29 09:14:32;;;;;;;12.50;6.63;;;16.40;98.00;;;;;;5014867;28;20832;-63
2023/08/29 09:17:01;;;;;;;14.20;7.70;;;16.50;98.00;;;;;;5014346;28;20460;-63
2023/08/29 09:19:33;;;;;;;15.03;6.87;;;16.70;98.00;;;;;;5013408;28;21040;-64
2023/08/29 09:22:00;;;;;;;14.10;6.87;;;16.60;98.00;;;;;;5014838;28;20458;-63
2023/08/29 09:24:34;;;;;;;11.07;6.60;;;16.60;98.00;;;;;;5014734;28;20461;-64
2023/08/29 09:27:01;;;;;;;13.50;7.10;;;16.70;98.00;;;;;;5014616;28;20544;-64
2023/08/29 09:29:31;;;;;;;12.63;6.73;;;16.80;98.00;;;;;;5013954;28;20475;-64
2023/08/29 09:34:29;;;;;;;13.43;7.27;;;16.70;98.00;;;;;;5244627;22;20479;-64
2023/08/29 09:36:56;;;;;;;12.30;5.20;;;16.70;98.00;;;;;;5054172;28;20553;-66
2023/08/29 09:39:23;;;;;;;16.90;5.37;;;16.70;98.00;;;;;;5054186;28;20868;-65
2023/08/29 09:42:03;;;;;;;13.60;6.40;;;17.00;98.00;;;;;;5054195;28;20449;-66
2023/08/29 09:44:37;;;;;;;11.50;6.53;;;17.20;98.00;;;;;;5054051;28;20924;-66
2023/08/29 09:47:04;;;;;;;10.63;5.43;;;17.20;98.00;;;;;;5054100;28;20453;-66
2023/08/29 09:49:33;;;;;;;14.17;5.57;;;17.30;98.00;;;;;;5054117;28;20457;-66
2023/08/29 09:52:02;;;;;;;11.37;6.07;;;17.60;98.00;;;;;;5054036;28;20517;-66
2023/08/29 09:54:32;;;;;;;10.00;5.30;;;17.70;98.00;;;;;;5053993;28;20454;-66
2023/08/29 09:57:06;;;;;;;9.30;4.70;;;17.70;98.00;;;;;;5053949;28;20987;-66
2023/08/29 09:59:39;;;;;;;13.60;6.50;;;17.90;98.00;;;;;;5054104;28;20495;-66
2023/08/29 10:02:09;;;;;;;10.87;6.23;;;18.00;98.00;;;;;;5054335;28;20486;-65
2023/08/29 10:04:40;;;;;;;12.00;6.33;;;18.00;98.00;;;;;;5053651;28;20453;-65
2023/08/29 10:07:08;;;;;;;17.60;6.90;;;18.10;98.00;;;;;;5051675;28;20526;-65
2023/08/29 10:09:37;;;;;;;12.00;6.70;;;18.20;98.00;;;;;;5052668;28;20460;-65
2023/08/29 10:12:06;;;;;;;11.30;6.57;;;18.30;98.00;;;;;;5052740;28;20485;-65
2023/08/29 10:14:36;;;;;;;11.80;6.27;;;18.20;98.00;;;;;;5052175;28;20519;-65
2023/08/29 10:17:04;;;;;;;12.17;6.63;;;18.10;98.00;;;;;;5052763;28;20458;-65
2023/08/29 10:19:33;;;;;;;12.43;6.20;;;17.90;98.00;;;;;;5052736;28;20804;-63
2023/08/29 10:22:01;;;;;;;11.93;6.60;;;17.60;98.00;;;;;;5052898;28;20485;-63
2023/08/29 10:24:29;;;;;;;14.63;6.90;;;17.30;98.00;;;;;;5052386;28;20548;-64
2023/08/29 10:27:00;;;;;;;11.37;6.50;;;17.10;98.00;;;;;;5052596;28;20454;-64
2023/08/29 10:29:27;;;;;;;10.57;6.30;;;16.90;98.00;;;;;;5052567;28;20808;-64
2023/08/29 10:31:56;;;;;;;13.60;7.17;;;16.80;98.00;;;;;;5052368;28;20488;-64
2023/08/29 10:34:24;;;;;;;10.97;6.57;;;16.80;98.00;;;;;;5052292;28;20475;-63
2023/08/29 10:36:51;;;;;;;12.23;7.03;;;16.70;98.00;;;;;;5052415;28;20463;-64
2023/08/29 10:39:20;;;;;;;13.10;7.13;;;16.70;98.00;;;;;;5052479;28;20449;-63
2023/08/29 10:41:47;;;;;;;12.63;6.53;;;16.50;98.00;;;;;;5050111;28;20955;-64
2023/08/29 10:44:25;;;;;;;12.00;6.50;;;16.50;98.00;;;;;;5052519;28;20506;-63
2023/08/29 10:46:53;;;;;;;12.33;6.83;;;16.20;98.00;;;;;;5052945;28;20457;-63
2023/08/29 10:49:23;;;;;;;11.03;6.43;;;16.10;98.00;;;;;;5052837;28;20470;-63
2023/08/29 10:52:08;;;;;;;14.63;7.70;;;16.10;98.00;;;;;;5052422;28;20489;-63
2023/08/29 10:54:35;;;;;;;14.17;6.80;;;16.20;98.00;;;;;;5052208;28;21093;-63
2023/08/29 10:57:02;;;;;;;18.97;7.10;;;16.30;98.00;;;;;;5052138;28;20481;-64
2023/08/29 10:59:31;;;;;;;10.57;6.23;;;16.60;98.00;;;;;;5051974;28;20463;-63
2023/08/29 11:02:31;;;;;;;11.27;6.70;;;16.70;98.00;;;;;;5051914;28;20497;-63
2023/08/29 11:05:15;;;;;;;12.50;6.57;;;16.70;98.00;;;;;;4990118;28;20536;-63
2023/08/29 11:07:42;;;;;;;11.33;6.30;;;16.60;98.00;;;;;;4988781;28;20449;-63
2023/08/29 11:10:13;;;;;;;11.80;6.80;;;16.50;98.00;;;;;;5024450;28;20819;-63
2023/08/29 11:13:09;;;;;;;11.17;6.20;;;16.50;98.00;;;;;;5051592;28;21013;-63
2023/08/29 11:16:07;;;;;;;12.90;6.70;;;16.50;98.00;;;;;;5051609;28;20450;-63
2023/08/29 11:18:35;;;;;;;12.53;7.00;;;16.60;98.00;;;;;;5051902;28;20456;-63
2023/08/29 11:21:07;;;;;;;11.00;5.33;;;16.70;98.00;;;;;;5050400;28;20903;-63
2023/08/29 11:23:38;;;;;;;12.57;5.87;;;16.60;98.00;;;;;;5051362;28;20450;-63
2023/08/29 11:26:05;;;;;;;10.63;5.70;;;16.70;98.00;;;;;;5051510;28;20516;-63
2023/08/29 11:28:34;;;;;;;11.13;5.93;;;16.60;98.00;;;;;;5051460;28;20497;-63
2023/08/29 11:31:01;;;;;;;9.67;5.50;;;16.70;98.00;;;;;;5051305;28;20568;-63
2023/08/29 11:33:36;;;;;;;10.97;5.40;;;16.80;98.00;;;;;;5050027;28;20461;-64
2023/08/29 11:36:07;;;;;;;9.40;5.27;;;17.00;98.00;;;;;;5050303;28;20697;-63
2023/08/29 11:38:34;;;;;;;9.17;4.97;;;17.30;98.00;;;;;;5051295;28;20454;-63
2023/08/29 11:41:05;;;;;;;9.97;5.50;;;17.50;98.00;;;;;;5051409;28;20449;-63
2023/08/29 11:43:33;;;;;;;8.63;5.40;;;17.60;98.00;;;;;;5051237;28;20446;-63
2023/08/29 11:46:06;;;;;;;9.30;5.40;;;17.90;98.00;;;;;;5050395;28;20457;-64
2023/08/29 11:48:34;;;;;;;9.43;5.53;;;17.90;98.00;;;;;;5051221;28;20454;-63
2023/08/29 11:51:07;;;;;;;9.30;5.30;;;18.00;98.00;;;;;;5051420;28;20999;-63
2023/08/29 11:53:36;;;;;;;11.23;5.50;;;18.10;98.00;;;;;;5049446;28;20467;-63
2023/08/29 11:56:05;;;;;;;9.37;4.90;;;18.10;98.00;;;;;;5049870;28;20874;-64
2023/08/29 11:58:33;;;;;;;8.60;5.30;;;18.20;98.00;;;;;;5051229;28;20504;-64
2023/08/29 12:01:02;;;;;;;7.17;4.67;;;18.20;98.00;;;;;;5051041;28;20458;-64
2023/08/29 12:03:29;;;;;;;7.77;4.93;;;18.10;98.00;;;;;;5051311;28;20445;-64
2023/08/29 12:05:58;;;;;;;6.43;4.23;;;18.20;98.00;;;;;;5050764;28;20450;-63
2023/08/29 12:08:37;;;;;;;8.00;4.90;;;18.20;98.00;;;;;;5051025;28;20458;-64
2023/08/29 12:11:06;;;;;;;11.43;4.90;;;18.10;98.00;;;;;;5049914;28;20449;-64
2023/08/29 12:13:34;;;;;;;9.00;5.20;;;18.10;98.00;;;;;;5050890;28;20678;-64
2023/08/29 12:16:02;;;;;;;8.23;4.50;;;18.10;98.00;;;;;;5050836;28;20489;-63
2023/08/29 12:18:29;;;;;;;12.40;5.00;;;18.00;98.00;;;;;;5050891;28;20454;-64
2023/08/29 12:21:11;;;;;;;7.63;4.70;;;18.10;98.00;;;;;;5049767;28;20816;-64
2023/08/29 12:23:42;;;;;;;9.90;4.20;;;18.20;98.00;;;;;;5050758;28;20932;-63
2023/08/29 12:26:09;;;;;;;6.27;4.00;;;18.30;98.00;;;;;;5050919;28;20457;-64
2023/08/29 12:28:37;;;;;;;9.40;4.20;;;18.30;98.00;;;;;;5050666;28;20514;-64
2023/08/29 12:31:04;;;;;;;6.27;3.60;;;18.40;98.00;;;;;;5049585;28;20450;-64
2023/08/29 12:33:31;;;;;;;5.70;3.63;;;18.40;98.00;;;;;;5050589;28;20800;-64
2023/08/29 12:35:59;;;;;;;5.23;3.50;;;18.30;98.00;;;;;;5050950;28;20450;-64
2023/08/29 12:38:26;;;;;;;6.40;3.30;;;18.30;98.00;;;;;;5050968;28;20461;-63
2023/08/29 12:40:55;;;;;;;7.30;3.77;;;18.30;98.00;;;;;;5050834;28;20450;-64
2023/08/29 12:43:23;;;;;;;5.67;3.60;;;18.20;98.00;;;;;;5050773;28;20453;-64
2023/08/29 12:45:51;;;;;;;6.90;4.03;;;18.10;98.00;;;;;;5049508;28;20544;-64
2023/08/29 12:48:20;;;;;;;5.53;3.87;;;18.00;98.00;;;;;;5050688;28;20461;-64
2023/08/29 12:50:48;;;;;;;6.37;4.10;;;18.10;98.00;;;;;;5050949;28;20449;-64
2023/08/29 12:53:18;;;;;;;7.33;4.03;;;18.20;98.00;;;;;;5050574;28;20508;-63